Terminal Aerodrome Forecast
Issued by NWS Tampa Bay Area, FL

Home | Current Version | Previous Version | Text Only | Print | Product List | Glossary On
Versions: 1 2 3 4 5 6 7 8 9 10 11 12 13 14 15 16 17 18 19 20 21 22 23 24 25 26 27 28 29
000
FTUS42 KTBW 010300 AAB
TAFTPA
TAF AMD
KTPA 010310Z 0103/0124 VRB03KT P6SM VCSH SCT015 SCT080
      TEMPO 0103/0106 SCT010 BKN020
     FM011500 24006KT P6SM VCTS SCT025CB BKN080
     FM012000 28007KT P6SM SCT035 SCT080 BKN250=

USA.gov is the U.S. government's official web portal to all federal, state and local government web resources and services.